createdAt,value
2023-05-16T00:00:38.176Z,9.01
2023-05-16T00:03:06.773Z,9.01
2023-05-16T00:05:33.780Z,9.00
2023-05-16T00:08:03.984Z,9.00
2023-05-16T00:10:31.119Z,8.94
2023-05-16T00:12:58.249Z,8.88
2023-05-16T00:15:27.133Z,8.88
2023-05-16T00:18:00.875Z,8.83
2023-05-16T00:20:28.855Z,8.92
2023-05-16T00:22:56.337Z,9.07
2023-05-16T00:25:23.583Z,9.24
2023-05-16T00:27:53.358Z,9.35
2023-05-16T00:30:20.419Z,9.39
2023-05-16T00:32:52.553Z,9.37
2023-05-16T00:35:19.953Z,9.41
2023-05-16T00:37:47.099Z,9.33
2023-05-16T00:40:17.364Z,9.31
2023-05-16T00:42:44.543Z,9.26
2023-05-16T00:45:12.238Z,9.21
2023-05-16T00:47:44.353Z,9.16
2023-05-16T00:50:11.525Z,9.03
2023-05-16T00:52:39.438Z,9.04
2023-05-16T00:55:07.181Z,9.00
2023-05-16T00:57:34.890Z,8.95
2023-05-16T01:00:06.789Z,8.83
2023-05-16T01:02:35.779Z,8.78
2023-05-16T01:05:05.432Z,8.74
2023-05-16T01:07:32.843Z,8.71
2023-05-16T01:10:00.300Z,8.64
2023-05-16T01:12:57.394Z,8.58
2023-05-16T01:15:35.848Z,8.55
2023-05-16T01:18:02.965Z,8.49
2023-05-16T01:20:36.352Z,8.47
2023-05-16T01:23:16.209Z,8.37
2023-05-16T01:25:47.099Z,8.28
2023-05-16T01:28:16.560Z,8.24
2023-05-16T01:30:44.838Z,8.35
2023-05-16T01:33:12.651Z,8.29
2023-05-16T01:35:46.255Z,8.29
2023-05-16T01:38:26.705Z,8.29
2023-05-16T01:41:05.042Z,8.35
2023-05-16T01:43:43.693Z,8.45
2023-05-16T01:46:16.287Z,8.55
2023-05-16T01:49:44.584Z,8.70
2023-05-16T01:52:16.710Z,8.84
2023-05-16T01:54:45.736Z,9.00
2023-05-16T01:57:13.401Z,9.04
2023-05-16T01:59:43.124Z,9.11
2023-05-16T02:02:11.036Z,9.17
2023-05-16T02:04:38.922Z,9.29
2023-05-16T02:07:07.367Z,9.27
2023-05-16T02:09:36.365Z,9.31
2023-05-16T02:12:04.693Z,9.32
2023-05-16T02:14:31.939Z,9.32
2023-05-16T02:16:59.332Z,9.30
2023-05-16T02:19:26.619Z,9.34
2023-05-16T02:21:53.549Z,9.37
2023-05-16T02:24:20.699Z,9.34
2023-05-16T02:26:47.758Z,9.35
2023-05-16T02:29:16.414Z,9.38
2023-05-16T02:31:43.853Z,9.42
2023-05-16T02:34:11.198Z,9.42
2023-05-16T02:36:38.271Z,9.43
2023-05-16T02:39:07.737Z,9.49
2023-05-16T02:41:34.779Z,9.53
2023-05-16T02:44:08.024Z,9.55
2023-05-16T02:46:35.937Z,9.61
2023-05-16T02:49:04.504Z,9.65
2023-05-16T02:51:31.571Z,9.72
2023-05-16T02:54:00.100Z,9.77
2023-05-16T02:56:30.191Z,9.81
2023-05-16T02:58:57.177Z,9.92
2023-05-16T03:01:24.676Z,10.02
2023-05-16T03:03:59.312Z,10.08
2023-05-16T03:06:26.575Z,10.13
2023-05-16T03:08:56.590Z,10.12
2023-05-16T03:11:26.070Z,10.23
2023-05-16T03:13:53.202Z,10.36
2023-05-16T03:16:20.360Z,10.52
2023-05-16T03:18:48.753Z,10.73
2023-05-16T03:21:15.799Z,10.85
2023-05-16T03:23:45.527Z,10.94
2023-05-16T03:26:12.572Z,11.17
2023-05-16T03:28:39.712Z,11.33
2023-05-16T03:31:06.887Z,11.52
2023-05-16T03:33:36.900Z,11.63
2023-05-16T03:36:04.211Z,11.80
2023-05-16T03:38:31.383Z,11.86
2023-05-16T03:41:01.737Z,11.90
2023-05-16T03:43:29.041Z,11.99
2023-05-16T03:45:59.923Z,12.09
2023-05-16T03:48:27.091Z,12.15
2023-05-16T03:51:15.633Z,12.27
2023-05-16T03:54:01.275Z,12.35
2023-05-16T03:56:28.692Z,12.41
2023-05-16T03:58:59.409Z,12.48
2023-05-16T04:01:45.017Z,12.51
2023-05-16T04:04:11.987Z,12.65
2023-05-16T04:06:39.992Z,12.68
2023-05-16T04:09:09.824Z,12.76
2023-05-16T04:11:38.913Z,12.71
2023-05-16T04:14:05.984Z,12.83
2023-05-16T04:16:33.207Z,12.92
2023-05-16T04:19:00.328Z,13.01
2023-05-16T04:21:27.790Z,13.15
2023-05-16T04:23:54.826Z,13.27
2023-05-16T04:26:22.701Z,13.35
2023-05-16T04:29:09.150Z,13.42
2023-05-16T04:31:57.003Z,13.53
2023-05-16T04:34:29.657Z,13.62
2023-05-16T04:36:57.154Z,13.58
2023-05-16T04:39:26.919Z,13.74
2023-05-16T04:41:54.787Z,13.84
2023-05-16T04:44:22.013Z,13.87
2023-05-16T04:46:49.174Z,13.95
2023-05-16T04:49:16.830Z,13.92
2023-05-16T04:51:43.792Z,13.97
2023-05-16T04:54:10.957Z,13.93
2023-05-16T04:56:37.950Z,13.98
2023-05-16T04:59:05.244Z,14.03
2023-05-16T05:01:32.585Z,13.94
2023-05-16T05:04:18.560Z,13.96
2023-05-16T05:06:45.807Z,13.99
2023-05-16T05:09:12.772Z,14.20
2023-05-16T05:11:40.895Z,14.36
2023-05-16T05:14:09.531Z,14.31
2023-05-16T05:16:37.770Z,14.30
2023-05-16T05:19:05.898Z,14.27
2023-05-16T05:21:33.088Z,14.27
2023-05-16T05:24:00.246Z,14.25
2023-05-16T05:26:28.172Z,14.25
2023-05-16T05:29:04.432Z,14.42
2023-05-16T05:31:35.146Z,14.40
2023-05-16T05:34:03.604Z,14.48
2023-05-16T05:36:31.266Z,14.66
2023-05-16T05:38:58.766Z,14.90
2023-05-16T05:41:26.991Z,15.08
2023-05-16T05:43:56.524Z,15.22
2023-05-16T05:46:25.442Z,15.15
2023-05-16T05:48:52.664Z,15.06
2023-05-16T05:51:20.166Z,15.15
2023-05-16T05:53:47.403Z,15.18
2023-05-16T05:56:14.510Z,15.23
2023-05-16T05:58:47.383Z,15.20
2023-05-16T06:01:17.429Z,15.26
2023-05-16T06:03:44.581Z,15.42
2023-05-16T06:06:11.561Z,15.67
2023-05-16T06:08:47.788Z,15.65
2023-05-16T06:11:15.229Z,15.66
2023-05-16T06:13:45.469Z,15.70
2023-05-16T06:16:13.931Z,15.80
2023-05-16T06:18:41.089Z,15.96
2023-05-16T06:21:08.270Z,16.13
2023-05-16T06:23:36.091Z,16.16
2023-05-16T06:26:11.731Z,16.26
2023-05-16T06:28:41.859Z,16.33
2023-05-16T06:31:10.625Z,16.23
2023-05-16T06:33:43.395Z,16.21
2023-05-16T06:36:15.642Z,16.32
2023-05-16T06:38:43.565Z,16.48
2023-05-16T06:41:10.567Z,16.68
2023-05-16T06:43:37.634Z,16.78
2023-05-16T06:46:05.068Z,16.81
2023-05-16T06:48:34.316Z,16.89
2023-05-16T06:51:04.802Z,16.68
2023-05-16T06:53:32.046Z,16.66
2023-05-16T06:55:59.362Z,16.78
2023-05-16T06:58:33.803Z,16.94
2023-05-16T07:01:03.532Z,16.98
2023-05-16T07:03:32.325Z,17.12
2023-05-16T07:05:59.471Z,17.18
2023-05-16T07:08:26.542Z,17.27
2023-05-16T07:10:53.608Z,17.30
2023-05-16T07:13:23.783Z,17.39
2023-05-16T07:15:51.725Z,17.53
2023-05-16T07:18:21.072Z,17.32
2023-05-16T07:20:48.645Z,17.30
2023-05-16T07:23:18.081Z,17.38
2023-05-16T07:25:45.328Z,17.65
2023-05-16T07:28:12.532Z,17.89
2023-05-16T07:30:40.274Z,17.99
2023-05-16T07:33:07.422Z,18.25
2023-05-16T07:35:34.683Z,18.26
2023-05-16T07:38:08.571Z,18.46
2023-05-16T07:40:39.039Z,18.52
2023-05-16T07:43:08.207Z,18.75
2023-05-16T07:45:40.845Z,18.50
2023-05-16T07:48:08.070Z,18.52
2023-05-16T07:50:35.156Z,18.73
2023-05-16T07:53:02.429Z,18.75
2023-05-16T07:55:32.486Z,18.83
2023-05-16T07:57:59.574Z,19.08
2023-05-16T08:00:26.851Z,19.05
2023-05-16T08:02:54.393Z,18.96
2023-05-16T08:05:21.705Z,19.18
2023-05-16T08:07:53.697Z,19.25
2023-05-16T08:10:21.057Z,19.47
2023-05-16T08:12:48.508Z,19.94
2023-05-16T08:15:18.848Z,19.73
2023-05-16T08:17:46.409Z,19.41
2023-05-16T08:20:13.791Z,19.61
2023-05-16T08:22:41.252Z,19.86
2023-05-16T08:25:12.056Z,20.26
2023-05-16T08:27:39.491Z,20.43
2023-05-16T08:30:11.560Z,20.02
2023-05-16T08:32:41.569Z,20.10
2023-05-16T08:35:09.029Z,20.50
2023-05-16T08:37:38.110Z,20.87
2023-05-16T08:40:08.480Z,21.18
2023-05-16T08:42:36.149Z,21.38
2023-05-16T08:45:03.939Z,21.18
2023-05-16T08:47:33.324Z,21.23
2023-05-16T08:50:04.476Z,20.99
2023-05-16T08:52:34.836Z,20.70
2023-05-16T08:55:11.073Z,20.74
2023-05-16T08:57:44.613Z,21.06
2023-05-16T09:00:12.982Z,22.00
2023-05-16T09:02:47.172Z,22.23
2023-05-16T09:05:16.469Z,22.45
2023-05-16T09:07:45.944Z,22.54
2023-05-16T09:10:13.956Z,22.60
2023-05-16T09:12:42.271Z,22.85
2023-05-16T09:15:13.083Z,23.36
2023-05-16T09:17:50.103Z,23.95
2023-05-16T09:20:23.299Z,24.21
2023-05-16T09:23:02.288Z,24.45
2023-05-16T09:25:33.020Z,24.77
2023-05-16T09:28:26.142Z,25.01
2023-05-16T09:31:00.226Z,25.15
2023-05-16T09:33:46.542Z,25.81
2023-05-16T09:36:19.787Z,25.78
2023-05-16T09:39:24.665Z,25.78
2023-05-16T09:42:18.737Z,25.29
2023-05-16T09:45:04.655Z,25.31
2023-05-16T09:47:32.943Z,25.90
2023-05-16T09:50:21.744Z,26.14
2023-05-16T09:52:48.839Z,26.00
2023-05-16T09:55:26.305Z,26.33
2023-05-16T09:58:12.805Z,26.34
2023-05-16T10:00:57.376Z,26.41
2023-05-16T10:03:41.000Z,26.49
2023-05-16T10:06:09.330Z,26.16
2023-05-16T10:08:37.286Z,25.96
2023-05-16T10:11:06.100Z,25.89
2023-05-16T10:13:39.687Z,26.21
2023-05-16T10:16:48.710Z,26.20
2023-05-16T10:19:40.418Z,25.88
2023-05-16T10:22:08.054Z,25.78
2023-05-16T10:25:17.058Z,25.62
2023-05-16T10:27:45.026Z,26.41
2023-05-16T10:30:37.507Z,26.96
2023-05-16T10:33:08.026Z,27.08
2023-05-16T10:35:42.578Z,27.19
2023-05-16T10:38:30.233Z,27.49
2023-05-16T10:41:03.758Z,26.98
2023-05-16T10:43:31.306Z,26.66
2023-05-16T10:46:10.868Z,26.87
2023-05-16T10:48:44.020Z,26.98
2023-05-16T10:51:23.579Z,27.67
2023-05-16T10:53:55.113Z,27.97
2023-05-16T10:56:27.204Z,28.33
2023-05-16T10:59:02.169Z,28.61
2023-05-16T11:01:36.119Z,28.82
2023-05-16T11:04:06.461Z,29.10
2023-05-16T11:06:42.981Z,29.63
2023-05-16T11:09:29.441Z,29.11
2023-05-16T11:12:00.403Z,28.52
2023-05-16T11:14:34.780Z,28.50
2023-05-16T11:17:07.198Z,28.16
2023-05-16T11:19:48.030Z,28.65
2023-05-16T11:22:26.991Z,28.69
2023-05-16T11:25:05.941Z,28.87
2023-05-16T11:27:57.853Z,29.25
2023-05-16T11:30:31.092Z,30.07
2023-05-16T11:32:58.281Z,30.45
2023-05-16T11:35:26.038Z,30.47
2023-05-16T11:37:53.483Z,30.29
2023-05-16T11:40:20.888Z,30.20
2023-05-16T11:42:48.551Z,29.93
2023-05-16T11:45:58.081Z,30.13
2023-05-16T11:48:35.632Z,30.45
2023-05-16T11:51:03.702Z,30.10
2023-05-16T11:53:30.893Z,30.42
2023-05-16T11:56:02.279Z,30.20
2023-05-16T11:58:32.123Z,30.06
2023-05-16T12:00:59.401Z,29.87
2023-05-16T12:03:26.554Z,29.94
2023-05-16T12:05:55.237Z,30.09
2023-05-16T12:08:22.741Z,30.83
2023-05-16T12:10:51.722Z,30.91
2023-05-16T12:13:22.741Z,30.78
2023-05-16T12:16:09.654Z,31.08
2023-05-16T12:18:41.850Z,31.68
2023-05-16T12:21:10.768Z,31.30
2023-05-16T12:23:37.862Z,31.40
2023-05-16T12:26:08.658Z,31.01
2023-05-16T12:28:37.934Z,31.74
2023-05-16T12:31:23.140Z,31.71
2023-05-16T12:33:58.620Z,31.39
2023-05-16T12:36:26.690Z,31.34
2023-05-16T12:38:54.106Z,31.60
2023-05-16T12:41:22.710Z,32.38
2023-05-16T12:43:50.160Z,33.19
2023-05-16T12:46:18.853Z,33.79
2023-05-16T12:48:51.292Z,32.80
2023-05-16T12:51:19.466Z,32.22
2023-05-16T12:54:01.254Z,31.89
2023-05-16T12:56:44.737Z,32.00
2023-05-16T12:59:12.819Z,32.06
2023-05-16T13:01:40.846Z,32.09
2023-05-16T13:04:16.049Z,32.96
2023-05-16T13:06:56.797Z,33.15
2023-05-16T13:09:29.988Z,33.07
2023-05-16T13:11:58.551Z,33.76
2023-05-16T13:14:25.959Z,33.39
2023-05-16T13:16:53.137Z,32.37
2023-05-16T13:19:34.384Z,32.41
2023-05-16T13:22:01.678Z,33.21
2023-05-16T13:24:31.397Z,33.71
2023-05-16T13:27:27.355Z,34.13
2023-05-16T13:29:57.122Z,33.71
2023-05-16T13:32:27.852Z,33.74
2023-05-16T13:34:56.051Z,33.85
2023-05-16T13:37:24.631Z,33.89
2023-05-16T13:39:52.857Z,34.03
2023-05-16T13:42:19.939Z,34.04
2023-05-16T13:44:47.655Z,33.30
2023-05-16T13:47:14.840Z,34.05
2023-05-16T13:49:44.168Z,34.24
2023-05-16T13:52:13.877Z,34.70
2023-05-16T13:54:41.710Z,34.99
2023-05-16T13:57:08.891Z,35.16
2023-05-16T14:02:06.216Z,34.71
2023-05-16T14:04:33.568Z,34.69
2023-05-16T14:07:01.671Z,34.70
2023-05-16T14:09:28.736Z,34.03
2023-05-16T14:11:56.193Z,33.19
2023-05-16T14:14:27.188Z,32.48
2023-05-16T14:16:54.365Z,32.56
2023-05-16T14:19:23.552Z,33.46
2023-05-16T14:21:53.632Z,34.39
2023-05-16T14:24:20.657Z,34.79
2023-05-16T14:26:48.022Z,34.56
2023-05-16T14:29:15.044Z,33.77
2023-05-16T14:31:42.550Z,33.76
2023-05-16T14:36:56.891Z,33.08
2023-05-16T14:39:24.046Z,33.38
2023-05-16T14:41:51.425Z,33.58
2023-05-16T14:44:20.473Z,33.02
2023-05-16T14:46:48.082Z,32.92
2023-05-16T14:49:18.045Z,32.54
2023-05-16T14:51:50.605Z,32.67
2023-05-16T14:54:20.300Z,33.56
2023-05-16T14:56:47.522Z,32.98
2023-05-16T14:59:14.712Z,32.09
2023-05-16T15:01:42.127Z,32.21
2023-05-16T15:04:09.349Z,32.45
2023-05-16T15:06:36.717Z,32.53
2023-05-16T15:09:03.881Z,33.09
2023-05-16T15:11:33.259Z,32.88
2023-05-16T15:14:01.892Z,31.72
2023-05-16T15:16:30.432Z,31.28
2023-05-16T15:19:04.067Z,30.58
2023-05-16T15:21:33.471Z,30.07
2023-05-16T15:24:01.021Z,30.01
2023-05-16T15:26:28.268Z,30.11
2023-05-16T15:28:55.845Z,29.79
2023-05-16T15:31:23.234Z,28.83
2023-05-16T15:33:52.830Z,28.45
2023-05-16T15:36:19.863Z,28.59
2023-05-16T15:38:47.673Z,29.62
2023-05-16T15:41:31.921Z,29.98
2023-05-16T15:44:03.347Z,29.59
2023-05-16T15:46:43.587Z,28.41
2023-05-16T15:49:12.996Z,27.55
2023-05-16T15:51:42.715Z,25.83
2023-05-16T15:54:10.359Z,24.34
2023-05-16T15:56:37.451Z,23.96
2023-05-16T15:59:08.416Z,23.13
2023-05-16T16:01:35.702Z,22.53
2023-05-16T16:04:07.934Z,21.89
2023-05-16T16:06:37.982Z,21.47
2023-05-16T16:09:05.102Z,21.05
2023-05-16T16:11:32.388Z,21.00
2023-05-16T16:13:59.608Z,21.05
2023-05-16T16:16:27.232Z,20.84
2023-05-16T16:18:58.037Z,20.54
2023-05-16T16:21:25.271Z,20.27
2023-05-16T16:23:52.325Z,19.97
2023-05-16T16:26:19.714Z,19.89
2023-05-16T16:28:47.469Z,19.73
2023-05-16T16:31:17.713Z,19.65
2023-05-16T16:33:58.466Z,19.53
2023-05-16T16:36:25.780Z,19.48
2023-05-16T16:38:53.078Z,19.39
2023-05-16T16:41:24.814Z,19.18
2023-05-16T16:43:54.357Z,19.18
2023-05-16T16:46:32.049Z,19.49
2023-05-16T16:49:04.722Z,19.36
2023-05-16T16:51:38.999Z,19.12
2023-05-16T16:54:07.568Z,19.31
2023-05-16T16:56:34.739Z,18.97
2023-05-16T16:59:02.329Z,18.83
2023-05-16T17:01:32.195Z,18.78
2023-05-16T17:04:00.282Z,18.58
2023-05-16T17:06:30.033Z,18.37
2023-05-16T17:09:07.472Z,18.31
2023-05-16T17:11:43.168Z,18.19
2023-05-16T17:14:16.222Z,18.10
2023-05-16T17:17:01.601Z,17.85
2023-05-16T17:19:29.096Z,17.90
2023-05-16T17:21:56.655Z,17.73
2023-05-16T17:24:23.765Z,17.69
2023-05-16T17:27:09.455Z,17.50
2023-05-16T17:29:38.749Z,17.56
2023-05-16T17:32:09.193Z,17.38
2023-05-16T17:34:36.602Z,17.37
2023-05-16T17:37:06.286Z,17.43
2023-05-16T17:39:34.243Z,17.30
2023-05-16T17:42:02.249Z,17.19
2023-05-16T17:44:36.840Z,17.10
2023-05-16T17:47:11.514Z,16.95
2023-05-16T17:49:44.929Z,16.80
2023-05-16T17:52:12.249Z,16.77
2023-05-16T17:54:39.610Z,16.81
2023-05-16T17:57:07.007Z,16.76
2023-05-16T17:59:39.836Z,16.67
2023-05-16T18:02:10.119Z,16.74
2023-05-16T18:04:37.205Z,16.57
2023-05-16T18:07:08.078Z,16.60
2023-05-16T18:09:35.760Z,16.58
2023-05-16T18:12:21.514Z,16.52
2023-05-16T18:14:48.985Z,16.55
2023-05-16T18:17:18.117Z,16.51
2023-05-16T18:19:54.127Z,16.41
2023-05-16T18:22:24.759Z,16.38
2023-05-16T18:24:52.183Z,16.25
2023-05-16T18:27:19.294Z,16.26
2023-05-16T18:29:46.500Z,16.24
2023-05-16T18:32:32.314Z,16.20
2023-05-16T18:34:59.605Z,16.14
2023-05-16T18:37:30.114Z,16.04
2023-05-16T18:39:57.287Z,16.13
2023-05-16T18:42:25.926Z,16.11
2023-05-16T18:45:03.065Z,15.92
2023-05-16T18:47:32.161Z,15.99
2023-05-16T18:50:17.860Z,16.03
2023-05-16T18:53:03.739Z,15.78
2023-05-16T18:55:31.381Z,15.88
2023-05-16T18:57:58.873Z,15.69
2023-05-16T19:00:26.087Z,15.77
2023-05-16T19:02:57.250Z,15.66
2023-05-16T19:05:25.943Z,15.54
2023-05-16T19:08:11.884Z,15.59
2023-05-16T19:10:41.701Z,15.45
2023-05-16T19:13:10.126Z,15.45
2023-05-16T19:15:55.981Z,15.41
2023-05-16T19:18:45.430Z,15.39
2023-05-16T19:21:14.426Z,15.29
2023-05-16T19:23:49.566Z,15.25
2023-05-16T19:26:17.116Z,15.24
2023-05-16T19:28:47.346Z,15.31
2023-05-16T19:31:15.155Z,15.23
2023-05-16T19:34:09.600Z,15.29
2023-05-16T19:36:37.435Z,15.09
2023-05-16T19:39:04.980Z,15.05
2023-05-16T19:41:32.203Z,15.03
2023-05-16T19:43:59.453Z,15.00
2023-05-16T19:46:45.130Z,14.91
2023-05-16T19:49:17.502Z,14.75
2023-05-16T19:51:46.593Z,14.87
2023-05-16T19:54:16.556Z,14.74
2023-05-16T19:56:48.637Z,14.67
2023-05-16T19:59:20.978Z,14.63
2023-05-16T20:01:49.074Z,14.64
2023-05-16T20:04:34.677Z,14.64
2023-05-16T20:07:04.058Z,14.45
2023-05-16T20:09:31.401Z,14.42
2023-05-16T20:11:59.072Z,14.31
2023-05-16T20:14:27.501Z,14.40
2023-05-16T20:16:55.000Z,14.54
2023-05-16T20:19:23.027Z,14.49
2023-05-16T20:21:50.286Z,14.46
2023-05-16T20:24:17.772Z,14.46
2023-05-16T20:27:03.493Z,14.39
2023-05-16T20:29:34.242Z,14.37
2023-05-16T20:32:03.322Z,14.37
2023-05-16T20:34:33.308Z,14.25
2023-05-16T20:37:20.210Z,14.25
2023-05-16T20:40:06.876Z,14.35
2023-05-16T20:42:35.057Z,14.18
2023-05-16T20:45:02.403Z,13.95
2023-05-16T20:47:38.588Z,13.92
2023-05-16T20:50:08.901Z,13.93
2023-05-16T20:52:36.248Z,13.73
2023-05-16T20:55:03.396Z,13.66
2023-05-16T20:57:34.313Z,13.56
2023-05-16T21:00:02.757Z,13.54
2023-05-16T21:02:37.421Z,13.46
2023-05-16T21:05:23.051Z,13.42
2023-05-16T21:07:53.486Z,13.38
2023-05-16T21:10:23.183Z,13.39
2023-05-16T21:12:50.442Z,13.38
2023-05-16T21:15:19.877Z,13.37
2023-05-16T21:17:48.829Z,13.28
2023-05-16T21:20:19.230Z,13.29
2023-05-16T21:22:46.391Z,13.26
2023-05-16T21:25:13.552Z,13.30
2023-05-16T21:27:40.843Z,13.23
2023-05-16T21:30:08.408Z,13.19
2023-05-16T21:32:35.675Z,13.23
2023-05-16T21:35:04.332Z,13.20
2023-05-16T21:37:32.292Z,13.10
2023-05-16T21:39:59.342Z,13.08
2023-05-16T21:42:27.593Z,13.00
2023-05-16T21:44:55.461Z,12.99
2023-05-16T21:47:23.297Z,13.06
2023-05-16T21:49:50.450Z,12.96
2023-05-16T21:52:17.558Z,12.93
2023-05-16T21:54:44.793Z,12.98
2023-05-16T21:57:12.073Z,12.94
2023-05-16T21:59:42.009Z,12.84
2023-05-16T22:02:11.999Z,12.85
2023-05-16T22:04:39.015Z,12.82
2023-05-16T22:07:06.432Z,12.75
2023-05-16T22:09:33.539Z,12.73
2023-05-16T22:12:00.676Z,12.71
2023-05-16T22:14:29.011Z,12.72
2023-05-16T22:16:56.176Z,12.76
2023-05-16T22:19:23.423Z,12.75
2023-05-16T22:21:51.009Z,12.71
2023-05-16T22:24:18.681Z,12.67
2023-05-16T22:26:49.474Z,12.66
2023-05-16T22:29:16.746Z,12.51
2023-05-16T22:31:44.222Z,12.62
2023-05-16T22:34:13.775Z,12.45
2023-05-16T22:36:42.233Z,12.42
2023-05-16T22:39:09.587Z,12.26
2023-05-16T22:41:36.871Z,12.36
2023-05-16T22:44:03.918Z,12.34
2023-05-16T22:46:31.066Z,12.29
2023-05-16T22:48:58.236Z,12.33
2023-05-16T22:51:27.975Z,12.24
2023-05-16T22:53:57.436Z,12.21
2023-05-16T22:56:24.720Z,12.15
2023-05-16T22:58:52.080Z,12.03
2023-05-16T23:01:20.833Z,12.10
2023-05-16T23:03:48.149Z,12.07
2023-05-16T23:06:15.820Z,12.02
2023-05-16T23:08:45.396Z,12.05
2023-05-16T23:11:15.031Z,12.01
2023-05-16T23:13:47.057Z,11.99
2023-05-16T23:16:14.058Z,11.98
2023-05-16T23:18:43.967Z,11.94
2023-05-16T23:21:11.044Z,11.88
2023-05-16T23:23:38.163Z,11.84
2023-05-16T23:26:05.349Z,11.89
2023-05-16T23:28:35.626Z,11.90
2023-05-16T23:31:02.654Z,11.85
2023-05-16T23:33:30.734Z,11.84
2023-05-16T23:35:57.923Z,11.83
2023-05-16T23:38:25.811Z,11.81
2023-05-16T23:40:53.054Z,11.80
2023-05-16T23:43:20.173Z,11.73
2023-05-16T23:45:47.532Z,11.53
2023-05-16T23:48:14.894Z,11.55
2023-05-16T23:50:42.042Z,11.64
2023-05-16T23:53:09.127Z,11.58
2023-05-16T23:55:36.190Z,11.52
2023-05-16T23:58:07.132Z,11.47
